Estación de El Cardal INIA

Ultimos registro cada 15 minutos 63
Estación Fecha / Hora Temperatura Humedad Lluvia Velocidad Dirección Radiación Presion
63 El Cardal INIA 07-05-2026 15:30 8,9 85,9 0,1 0 0 50 1016
62 El Cardal INIA 07-05-2026 15:15 9,4 71,2 0 0 0 92 1016
61 El Cardal INIA 07-05-2026 15:00 9,3 70,2 0 0,1 267 102 1016
60 El Cardal INIA 07-05-2026 14:45 9,4 69,9 0 0 289 88 1016
59 El Cardal INIA 07-05-2026 14:30 9,6 69,2 0 0,3 323 114 1016
58 El Cardal INIA 07-05-2026 14:15 10 61,6 0 0,1 303 188 1016
57 El Cardal INIA 07-05-2026 14:00 9,9 61,6 0 0 0 274 1017
56 El Cardal INIA 07-05-2026 13:45 9,6 64,4 0 0 288 200 1017
55 El Cardal INIA 07-05-2026 13:30 9,7 64,8 0 0,1 326 215 1017
54 El Cardal INIA 07-05-2026 13:15 9,5 66,4 0 0 0 214 1017
53 El Cardal INIA 07-05-2026 13:00 9,4 63,5 0 0,1 245 156 1017
52 El Cardal INIA 07-05-2026 12:45 9,5 64,8 0 0 0 201 1017
51 El Cardal INIA 07-05-2026 12:30 9,3 66,1 0 0,1 239 146 1017
50 El Cardal INIA 07-05-2026 12:15 9,7 66,2 0 0,3 237 212 1017
49 El Cardal INIA 07-05-2026 12:00 9,6 67,8 0 0,6 242 286 1017
48 El Cardal INIA 07-05-2026 11:45 9,2 72,1 0 0,4 233 349 1017
47 El Cardal INIA 07-05-2026 11:30 8,9 72,6 0 1,1 247 288 1017
46 El Cardal INIA 07-05-2026 11:15 8,7 72,2 0 0,7 256 265 1017
45 El Cardal INIA 07-05-2026 11:00 8,4 73,2 0 1,3 248 280 1017
44 El Cardal INIA 07-05-2026 10:45 8,5 73,9 0 1,2 256 218 1017
43 El Cardal INIA 07-05-2026 10:30 8,6 73,7 0 0,4 274 253 1017
42 El Cardal INIA 07-05-2026 10:15 8,5 75,2 0 0,4 251 396 1017
41 El Cardal INIA 07-05-2026 10:00 7,7 78,8 0 0,1 263 295 1017
40 El Cardal INIA 07-05-2026 09:45 6,8 83,3 0 0 272 223 1017
39 El Cardal INIA 07-05-2026 09:30 6,2 88,1 0 0 0 123 1017
38 El Cardal INIA 07-05-2026 09:15 5,5 92,3 0 0 0 95 1017
37 El Cardal INIA 07-05-2026 09:00 4,9 93,1 0 0 0 70 1017
36 El Cardal INIA 07-05-2026 08:45 4,1 94,3 0 0 0 50 1017
35 El Cardal INIA 07-05-2026 08:30 3,6 94,4 0 0 0 66 1017
34 El Cardal INIA 07-05-2026 08:15 3,1 96,7 0 0 0 34 1017
33 El Cardal INIA 07-05-2026 08:00 3,1 96,5 0 0 0 6 1017
32 El Cardal INIA 07-05-2026 07:45 3,3 95,9 0 0 0 2 1017
31 El Cardal INIA 07-05-2026 07:30 3,8 95,1 0 0 0 0 1017
30 El Cardal INIA 07-05-2026 07:15 4,1 94,7 0 0 0 0 1017
29 El Cardal INIA 07-05-2026 07:00 4,6 93 0 0 0 0 1017
28 El Cardal INIA 07-05-2026 06:45 4,7 91,6 0 0 0 0 1016
27 El Cardal INIA 07-05-2026 06:30 4,4 91 0 0 0 0 1016
26 El Cardal INIA 07-05-2026 06:15 4,6 89,4 0 0 0 0 1016
25 El Cardal INIA 07-05-2026 06:00 5,6 85,9 0 0 0 0 1016
24 El Cardal INIA 07-05-2026 05:45 6 81,6 0 1,8 244 0 1016
23 El Cardal INIA 07-05-2026 05:30 5,4 81,8 0 0,8 240 0 1016
22 El Cardal INIA 07-05-2026 05:15 4,8 85,7 0 0,3 241 0 1016
21 El Cardal INIA 07-05-2026 05:00 5,4 85,6 0 0,3 243 0 1016
20 El Cardal INIA 07-05-2026 04:45 6,3 79,6 0 0 0 0 1016
19 El Cardal INIA 07-05-2026 04:30 6,5 78,3 0 1,2 234 0 1016
18 El Cardal INIA 07-05-2026 04:15 6,6 77,8 0 0,2 238 0 1015
17 El Cardal INIA 07-05-2026 04:00 6,9 78,3 0 0,6 238 0 1015
16 El Cardal INIA 07-05-2026 03:45 7 77,2 0 1,5 240 0 1015
15 El Cardal INIA 07-05-2026 03:30 7 76,7 0 1,9 238 0 1015
14 El Cardal INIA 07-05-2026 03:15 6,8 77,5 0 1,7 239 0 1015
13 El Cardal INIA 07-05-2026 03:00 6,6 77,9 0 1,8 244 0 1015
12 El Cardal INIA 07-05-2026 02:45 6,4 83,1 0 1 242 0 1015
11 El Cardal INIA 07-05-2026 02:30 6 95 0 0 0 0 1015
10 El Cardal INIA 07-05-2026 02:15 5,6 95,6 0 0 0 0 1014
9 El Cardal INIA 07-05-2026 02:00 5,6 95,3 0 0 0 0 1014
8 El Cardal INIA 07-05-2026 01:45 5,4 95,7 0 0 0 0 1014
7 El Cardal INIA 07-05-2026 01:30 5,6 94,8 0 0 282 0 1014
6 El Cardal INIA 07-05-2026 01:15 6,9 90,5 0 0 243 0 1014
5 El Cardal INIA 07-05-2026 01:00 7,6 87 0 0 0 0 1014
4 El Cardal INIA 07-05-2026 00:45 7,6 87,1 0 0 0 0 1014
3 El Cardal INIA 07-05-2026 00:30 7,2 88,8 0 0 0 0 1013
2 El Cardal INIA 07-05-2026 00:15 6,9 89,9 0 0 0 0 1013
1 El Cardal INIA 07-05-2026 00:00 6,9 90,2 0 0 0 0 1013